createdAt,value
2019-02-06T00:02:19.790Z,20.53
2019-02-06T00:04:49.289Z,19.33
2019-02-06T00:07:18.766Z,24.33
2019-02-06T00:09:48.254Z,20.83
2019-02-06T00:12:17.846Z,27.83
2019-02-06T00:14:47.407Z,21.73
2019-02-06T00:17:17.184Z,20.20
2019-02-06T00:19:46.753Z,24.80
2019-02-06T00:22:16.170Z,19.47
2019-02-06T00:24:45.721Z,19.57
2019-02-06T00:27:15.235Z,24.43
2019-02-06T00:29:44.915Z,19.80
2019-02-06T00:32:14.523Z,23.33
2019-02-06T00:34:44.033Z,24.60
2019-02-06T00:37:13.500Z,20.60
2019-02-06T00:39:42.990Z,27.60
2019-02-06T00:42:12.511Z,24.23
2019-02-06T00:44:42.001Z,23.33
2019-02-06T00:47:11.566Z,19.30
2019-02-06T00:49:41.072Z,24.70
2019-02-06T00:52:10.540Z,24.23
2019-02-06T00:54:40.146Z,20.53
2019-02-06T00:57:09.616Z,25.07
2019-02-06T00:59:39.192Z,26.20
2019-02-06T01:02:08.699Z,22.00
2019-02-06T01:04:38.188Z,20.87
2019-02-06T01:07:07.685Z,24.33
2019-02-06T01:09:37.271Z,20.60
2019-02-06T01:12:06.768Z,18.97
2019-02-06T01:14:36.250Z,23.10
2019-02-06T01:17:06.065Z,19.80
2019-02-06T01:19:35.549Z,27.57
2019-02-06T01:22:05.059Z,22.90
2019-02-06T01:24:34.574Z,20.50
2019-02-06T01:27:04.063Z,19.30
2019-02-06T01:29:33.819Z,22.13
2019-02-06T01:32:03.328Z,21.63
2019-02-06T01:34:32.809Z,22.53
2019-02-06T01:37:02.303Z,22.50
2019-02-06T01:39:31.794Z,22.10
2019-02-06T01:42:01.306Z,20.00
2019-02-06T01:44:31.182Z,23.47
2019-02-06T01:47:00.674Z,20.93
2019-02-06T01:49:30.192Z,25.37
2019-02-06T01:51:59.674Z,25.93
2019-02-06T01:54:29.142Z,22.67
2019-02-06T01:56:58.789Z,20.17
2019-02-06T01:59:28.653Z,29.87
2019-02-06T02:01:58.134Z,22.47
2019-02-06T02:04:27.629Z,21.90
2019-02-06T02:06:57.139Z,22.20
2019-02-06T02:09:26.618Z,19.63
2019-02-06T02:11:56.140Z,19.40
2019-02-06T02:14:26.008Z,27.37
2019-02-06T02:16:55.506Z,20.70
2019-02-06T02:19:24.914Z,21.63
2019-02-06T02:21:54.422Z,22.40
2019-02-06T02:24:23.940Z,20.73
2019-02-06T02:26:53.420Z,24.40
2019-02-06T02:29:23.374Z,17.43
2019-02-06T02:31:53.088Z,28.30
2019-02-06T02:34:22.561Z,21.47
2019-02-06T02:36:52.066Z,17.47
2019-02-06T02:39:21.574Z,27.40
2019-02-06T02:41:51.047Z,17.33
2019-02-06T02:44:20.813Z,22.93
2019-02-06T02:46:50.331Z,18.40
2019-02-06T02:49:19.828Z,19.83
2019-02-06T02:51:49.381Z,21.27
2019-02-06T02:54:18.842Z,23.20
2019-02-06T02:56:48.374Z,17.73
2019-02-06T02:59:18.295Z,22.77
2019-02-06T03:01:49.378Z,23.00
2019-02-06T03:04:20.434Z,16.63
2019-02-06T03:06:49.963Z,17.83
2019-02-06T03:09:19.480Z,18.90
2019-02-06T03:11:49.154Z,25.90
2019-02-06T03:14:18.639Z,19.83
2019-02-06T03:16:48.360Z,19.63
2019-02-06T03:19:17.852Z,19.17
2019-02-06T03:21:47.439Z,23.97
2019-02-06T03:24:16.933Z,21.87
2019-02-06T03:26:46.410Z,26.90
2019-02-06T03:29:15.930Z,20.10
2019-02-06T03:31:45.706Z,24.03
2019-02-06T03:34:15.216Z,18.43
2019-02-06T03:36:44.887Z,22.30
2019-02-06T03:39:14.386Z,20.43
2019-02-06T03:41:43.928Z,19.77
2019-02-06T03:44:13.459Z,21.77
2019-02-06T03:46:42.987Z,18.20
2019-02-06T03:49:12.519Z,19.40
2019-02-06T03:51:42.007Z,21.50
2019-02-06T03:54:11.476Z,20.40
2019-02-06T03:56:41.005Z,17.20
2019-02-06T03:59:10.789Z,19.70
2019-02-06T04:01:40.275Z,18.60
2019-02-06T04:04:09.973Z,22.23
2019-02-06T04:06:39.463Z,19.07
2019-02-06T04:09:10.666Z,16.30
2019-02-06T04:11:40.179Z,16.67
2019-02-06T04:14:09.957Z,17.80
2019-02-06T04:16:39.435Z,21.07
2019-02-06T04:19:08.954Z,17.40
2019-02-06T04:21:38.430Z,23.67
2019-02-06T04:24:07.917Z,20.57
2019-02-06T04:26:37.423Z,19.03
2019-02-06T04:29:06.930Z,23.83
2019-02-06T04:31:36.401Z,20.23
2019-02-06T04:34:05.962Z,20.60
2019-02-06T04:36:35.451Z,16.53
2019-02-06T04:39:07.494Z,21.00
2019-02-06T04:41:37.004Z,19.40
2019-02-06T04:44:06.686Z,18.10
2019-02-06T04:46:36.181Z,19.67
2019-02-06T04:49:05.776Z,16.17
2019-02-06T04:51:35.330Z,22.87
2019-02-06T04:54:05.062Z,22.20
2019-02-06T04:56:34.563Z,18.13
2019-02-06T04:59:04.047Z,19.50
2019-02-06T05:01:33.519Z,22.30
2019-02-06T05:04:03.041Z,20.73
2019-02-06T05:06:32.527Z,23.57
2019-02-06T05:09:02.014Z,19.67
2019-02-06T05:11:31.513Z,21.80
2019-02-06T05:14:01.033Z,20.47
2019-02-06T05:16:30.545Z,24.40
2019-02-06T05:19:00.109Z,21.30
2019-02-06T05:21:29.592Z,28.30
2019-02-06T05:23:59.272Z,23.57
2019-02-06T05:26:28.761Z,23.70
2019-02-06T05:28:58.240Z,20.60
2019-02-06T05:31:27.728Z,21.47
2019-02-06T05:33:57.243Z,20.07
2019-02-06T05:36:26.738Z,25.27
2019-02-06T05:38:56.236Z,22.03
2019-02-06T05:41:25.741Z,23.20
2019-02-06T05:43:55.635Z,24.40
2019-02-06T05:46:25.108Z,20.27
2019-02-06T05:48:54.656Z,19.93
2019-02-06T05:51:24.260Z,20.53
2019-02-06T05:53:53.863Z,18.90
2019-02-06T05:56:23.375Z,18.83
2019-02-06T05:58:53.427Z,17.70
2019-02-06T06:01:24.521Z,14.23
2019-02-06T06:03:54.022Z,16.73
2019-02-06T06:06:23.556Z,16.00
2019-02-06T06:08:53.448Z,15.40
2019-02-06T06:11:22.914Z,16.57
2019-02-06T06:13:52.869Z,18.07
2019-02-06T06:16:22.384Z,17.30
2019-02-06T06:18:51.878Z,14.07
2019-02-06T06:21:21.353Z,15.07
2019-02-06T06:23:50.902Z,15.73
2019-02-06T06:26:20.393Z,15.30
2019-02-06T06:28:49.855Z,9.50
2019-02-06T06:31:19.358Z,14.67
2019-02-06T06:33:48.943Z,15.07
2019-02-06T06:36:18.446Z,22.67
2019-02-06T06:38:47.930Z,18.87
2019-02-06T06:41:17.442Z,17.80
2019-02-06T06:43:47.161Z,15.80
2019-02-06T06:46:16.825Z,20.97
2019-02-06T06:48:46.309Z,21.07
2019-02-06T06:51:15.978Z,22.33
2019-02-06T06:53:46.323Z,18.00
2019-02-06T06:56:15.802Z,18.97
2019-02-06T06:58:45.323Z,21.90
2019-02-06T07:01:14.805Z,17.90
2019-02-06T07:03:44.285Z,18.30
2019-02-06T07:06:13.958Z,22.63
2019-02-06T07:08:43.413Z,25.10
2019-02-06T07:11:12.855Z,19.20
2019-02-06T07:13:42.360Z,23.27
2019-02-06T07:16:11.840Z,20.80
2019-02-06T07:18:41.308Z,19.63
2019-02-06T07:21:10.817Z,22.13
2019-02-06T07:23:40.316Z,17.90
2019-02-06T07:26:09.795Z,17.60
2019-02-06T07:28:39.306Z,15.20
2019-02-06T07:31:08.804Z,13.70
2019-02-06T07:33:51.382Z,16.10
2019-02-06T07:36:20.881Z,22.07
2019-02-06T07:38:50.353Z,18.23
2019-02-06T07:41:19.842Z,21.73
2019-02-06T07:43:49.345Z,17.10
2019-02-06T07:46:18.831Z,13.00
2019-02-06T07:48:48.315Z,12.03
2019-02-06T07:51:17.816Z,15.13
2019-02-06T07:53:47.300Z,15.00
2019-02-06T07:56:16.876Z,16.57
2019-02-06T07:58:46.578Z,16.67
2019-02-06T08:01:16.064Z,16.33
2019-02-06T08:03:45.547Z,13.83
2019-02-06T08:06:15.054Z,23.30
2019-02-06T08:08:44.543Z,16.30
2019-02-06T08:11:14.022Z,20.00
2019-02-06T08:13:43.912Z,19.73
2019-02-06T08:16:13.405Z,22.00
2019-02-06T08:18:42.898Z,20.00
2019-02-06T08:21:12.530Z,15.33
2019-02-06T08:23:42.007Z,16.10
2019-02-06T08:26:11.489Z,13.00
2019-02-06T08:28:41.281Z,18.47
2019-02-06T08:31:10.716Z,13.30
2019-02-06T08:33:40.182Z,11.70
2019-02-06T08:36:09.721Z,23.87
2019-02-06T08:38:47.415Z,13.70
2019-02-06T08:41:10.487Z,14.47
2019-02-06T08:43:39.949Z,13.30
2019-02-06T08:46:09.427Z,15.17
2019-02-06T08:48:38.930Z,14.73
2019-02-06T08:51:08.398Z,11.30
2019-02-06T08:53:37.890Z,10.57
2019-02-06T08:56:07.385Z,17.00
2019-02-06T08:58:37.048Z,12.40
2019-02-06T09:01:06.524Z,11.37
2019-02-06T09:03:36.127Z,14.03
2019-02-06T09:06:05.595Z,12.07
2019-02-06T09:08:35.071Z,15.20
2019-02-06T09:11:04.682Z,11.47
2019-02-06T09:13:34.462Z,12.33
2019-02-06T09:16:03.925Z,9.67
2019-02-06T09:18:33.471Z,13.97
2019-02-06T09:21:03.055Z,9.03
2019-02-06T09:23:32.517Z,9.10
2019-02-06T09:26:02.014Z,10.83
2019-02-06T09:28:31.760Z,10.97
2019-02-06T09:31:01.241Z,11.90
2019-02-06T09:33:30.739Z,11.30
2019-02-06T09:36:00.198Z,11.60
2019-02-06T09:38:29.689Z,10.53
2019-02-06T09:40:59.191Z,11.23
2019-02-06T09:43:29.028Z,10.63
2019-02-06T09:45:58.492Z,10.33
2019-02-06T09:48:27.977Z,12.90
2019-02-06T09:50:57.553Z,15.10
2019-02-06T09:53:27.049Z,12.43
2019-02-06T09:55:56.562Z,12.43
2019-02-06T09:58:26.512Z,10.77
2019-02-06T10:00:55.979Z,10.37
2019-02-06T10:03:25.522Z,14.03
2019-02-06T10:05:54.988Z,22.37
2019-02-06T10:08:24.482Z,16.53
2019-02-06T10:10:53.990Z,20.93
2019-02-06T10:13:23.844Z,18.00
2019-02-06T10:15:53.407Z,21.23
2019-02-06T10:18:23.013Z,22.10
2019-02-06T10:20:52.478Z,21.47
2019-02-06T10:23:21.940Z,21.90
2019-02-06T10:25:53.822Z,22.33
2019-02-06T10:28:24.235Z,18.00
2019-02-06T10:30:53.977Z,18.80
2019-02-06T10:33:23.473Z,19.20
2019-02-06T10:35:52.868Z,16.00
2019-02-06T10:38:22.340Z,14.67
2019-02-06T10:40:51.848Z,15.20
2019-02-06T10:43:31.618Z,20.27
2019-02-06T10:45:52.897Z,11.53
2019-02-06T10:48:22.356Z,12.53
2019-02-06T10:50:51.865Z,15.40
2019-02-06T10:53:21.367Z,12.60
2019-02-06T10:55:50.830Z,14.40
2019-02-06T10:58:20.697Z,12.87
2019-02-06T11:00:54.114Z,16.87
2019-02-06T11:03:23.612Z,12.30
2019-02-06T11:05:53.103Z,15.60
2019-02-06T11:08:22.669Z,12.10
2019-02-06T11:10:52.354Z,9.17
2019-02-06T11:13:21.854Z,13.90
2019-02-06T11:15:51.358Z,11.40
2019-02-06T11:18:20.853Z,12.13
2019-02-06T11:20:50.333Z,14.20
2019-02-06T11:23:19.846Z,15.80
2019-02-06T11:25:49.404Z,16.43
2019-02-06T11:28:18.895Z,11.63
2019-02-06T11:30:48.402Z,12.43
2019-02-06T11:33:17.890Z,11.70
2019-02-06T11:35:47.389Z,11.90
2019-02-06T11:38:16.908Z,11.83
2019-02-06T11:40:46.494Z,12.53
2019-02-06T11:43:16.279Z,12.53
2019-02-06T11:45:45.828Z,12.73
2019-02-06T11:48:15.326Z,12.97
2019-02-06T11:50:44.833Z,12.70
2019-02-06T11:53:16.733Z,12.20
2019-02-06T11:55:46.305Z,12.90
2019-02-06T11:58:15.820Z,11.60
2019-02-06T12:00:52.896Z,12.77
2019-02-06T12:03:22.485Z,12.00
2019-02-06T12:05:52.051Z,12.77
2019-02-06T12:08:21.673Z,12.20
2019-02-06T12:10:51.423Z,14.20
2019-02-06T12:13:20.905Z,11.90
2019-02-06T12:15:50.503Z,12.80
2019-02-06T12:18:20.141Z,13.23
2019-02-06T12:20:49.688Z,12.80
2019-02-06T12:23:31.604Z,13.30
2019-02-06T12:25:50.528Z,14.00
2019-02-06T12:28:20.087Z,22.33
2019-02-06T12:30:49.581Z,14.03
2019-02-06T12:33:19.076Z,14.63
2019-02-06T12:35:48.544Z,12.53
2019-02-06T12:38:18.062Z,11.93
2019-02-06T12:40:47.919Z,12.70
2019-02-06T12:43:17.418Z,13.50
2019-02-06T12:45:46.922Z,12.77
2019-02-06T12:48:16.389Z,13.23
2019-02-06T12:50:45.869Z,12.03
2019-02-06T12:53:15.483Z,12.17
2019-02-06T12:55:45.000Z,12.70
2019-02-06T12:58:14.959Z,23.00
2019-02-06T13:00:45.564Z,13.10
2019-02-06T13:03:15.041Z,12.97
2019-02-06T13:05:44.524Z,13.10
2019-02-06T13:08:17.131Z,12.20
2019-02-06T13:10:45.359Z,14.03
2019-02-06T13:13:15.350Z,13.73
2019-02-06T13:15:47.185Z,13.40
2019-02-06T13:18:16.173Z,11.93
2019-02-06T13:20:45.748Z,13.63
2019-02-06T13:23:15.342Z,13.07
2019-02-06T13:25:44.841Z,12.40
2019-02-06T13:28:14.708Z,14.63
2019-02-06T13:30:44.215Z,12.40
2019-02-06T13:33:13.696Z,11.13
2019-02-06T13:35:43.167Z,12.80
2019-02-06T13:38:12.720Z,12.43
2019-02-06T13:40:45.565Z,11.70
2019-02-06T13:43:13.468Z,12.63
2019-02-06T13:45:48.882Z,12.70
2019-02-06T13:48:19.413Z,20.33
2019-02-06T13:50:48.982Z,11.80
2019-02-06T13:53:18.465Z,13.27
2019-02-06T13:55:48.515Z,12.97
2019-02-06T13:58:20.250Z,13.13
2019-02-06T14:00:52.291Z,11.37
2019-02-06T14:03:20.828Z,12.63
2019-02-06T14:05:50.361Z,15.53
2019-02-06T14:08:19.836Z,12.63
2019-02-06T14:10:59.891Z,13.30
2019-02-06T14:13:20.826Z,12.70
2019-02-06T14:15:50.457Z,12.03
2019-02-06T14:18:20.132Z,13.30
2019-02-06T14:20:50.801Z,13.20
2019-02-06T14:23:40.103Z,14.37
2019-02-06T14:26:20.192Z,13.03
2019-02-06T14:29:15.704Z,13.77
2019-02-06T14:32:01.560Z,14.20
2019-02-06T14:34:38.686Z,15.87
2019-02-06T14:37:15.539Z,14.00
2019-02-06T14:39:55.408Z,14.17
2019-02-06T14:43:18.124Z,13.63
2019-02-06T14:46:40.617Z,14.70
2019-02-06T14:49:26.321Z,14.33
2019-02-06T14:52:05.995Z,14.57
2019-02-06T14:54:54.894Z,13.43
2019-02-06T14:57:50.308Z,14.50
2019-02-06T15:00:59.292Z,14.67
2019-02-06T15:03:51.241Z,15.90
2019-02-06T15:06:55.591Z,19.03
2019-02-06T15:09:55.544Z,13.67
2019-02-06T15:12:49.496Z,14.03
2019-02-06T15:15:38.924Z,13.33
2019-02-06T15:18:34.185Z,15.20
2019-02-06T15:21:20.325Z,13.60
2019-02-06T15:24:15.666Z,13.37
2019-02-06T15:27:10.911Z,13.60
2019-02-06T15:30:11.205Z,14.97
2019-02-06T15:32:54.529Z,17.23
2019-02-06T15:35:40.381Z,17.80
2019-02-06T15:38:38.905Z,17.60
2019-02-06T15:41:13.064Z,19.70
2019-02-06T15:44:03.852Z,20.80
2019-02-06T15:46:43.601Z,20.70
2019-02-06T15:49:26.709Z,18.87
2019-02-06T15:52:24.828Z,19.10
2019-02-06T15:55:14.232Z,18.63
2019-02-06T15:58:18.663Z,17.10
2019-02-06T16:01:11.371Z,20.83
2019-02-06T16:04:31.047Z,25.00
2019-02-06T16:07:26.740Z,19.90
2019-02-06T16:10:09.703Z,22.87
2019-02-06T16:12:55.971Z,19.90
2019-02-06T16:15:41.568Z,21.90
2019-02-06T16:18:42.716Z,21.40
2019-02-06T16:21:22.446Z,20.40
2019-02-06T16:24:02.616Z,20.30
2019-02-06T16:26:59.248Z,32.67
2019-02-06T16:30:00.329Z,21.90
2019-02-06T16:32:43.328Z,22.40
2019-02-06T16:35:39.451Z,21.33
2019-02-06T16:38:31.481Z,24.07
2019-02-06T16:41:40.845Z,24.10
2019-02-06T16:44:52.187Z,22.60
2019-02-06T16:47:28.795Z,24.47
2019-02-06T16:50:22.370Z,23.60
2019-02-06T16:53:10.643Z,21.10
2019-02-06T16:55:53.654Z,24.10
2019-02-06T16:58:42.934Z,20.70
2019-02-06T17:01:52.277Z,25.57
2019-02-06T17:04:45.117Z,28.07
2019-02-06T17:07:34.000Z,26.70
2019-02-06T17:10:27.149Z,28.17
2019-02-06T17:13:10.159Z,27.90
2019-02-06T17:16:02.215Z,32.73
2019-02-06T17:18:44.972Z,27.63
2019-02-06T17:21:30.539Z,26.67
2019-02-06T17:24:22.529Z,29.00
2019-02-06T17:27:15.283Z,23.90
2019-02-06T17:30:19.567Z,33.63
2019-02-06T17:33:23.678Z,26.60
2019-02-06T17:36:18.978Z,37.00
2019-02-06T17:39:01.853Z,28.30
2019-02-06T17:41:38.969Z,25.67
2019-02-06T17:44:32.621Z,24.17
2019-02-06T17:47:27.782Z,24.33
2019-02-06T17:50:13.611Z,27.07
2019-02-06T17:53:05.491Z,26.47
2019-02-06T17:55:35.042Z,32.80
2019-02-06T17:58:05.021Z,34.13
2019-02-06T18:00:44.400Z,36.10
2019-02-06T18:03:16.371Z,27.77
2019-02-06T18:05:47.641Z,23.53
2019-02-06T18:08:17.119Z,25.13
2019-02-06T18:10:46.600Z,26.93
2019-02-06T18:13:16.936Z,31.60
2019-02-06T18:15:46.537Z,25.83
2019-02-06T18:18:16.040Z,28.10
2019-02-06T18:20:46.153Z,26.80
2019-02-06T18:23:15.661Z,26.77
2019-02-06T18:25:45.118Z,25.00
2019-02-06T18:28:14.603Z,26.13
2019-02-06T18:30:44.108Z,24.83
2019-02-06T18:33:14.783Z,22.43
2019-02-06T18:35:44.291Z,22.83
2019-02-06T18:38:13.803Z,25.87
2019-02-06T18:40:44.422Z,24.73
2019-02-06T18:43:14.255Z,24.87
2019-02-06T18:45:43.737Z,24.60
2019-02-06T18:48:13.200Z,24.67
2019-02-06T18:50:42.736Z,26.20
2019-02-06T18:53:12.269Z,23.60
2019-02-06T18:55:41.810Z,25.17
2019-02-06T18:58:11.393Z,36.23
2019-02-06T19:00:46.079Z,34.47
2019-02-06T19:03:22.979Z,30.93
2019-02-06T19:05:52.525Z,33.00
2019-02-06T19:08:22.040Z,34.17
2019-02-06T19:10:51.940Z,26.43
2019-02-06T19:13:21.624Z,39.40
2019-02-06T19:15:56.650Z,25.23
2019-02-06T19:18:23.219Z,26.80
2019-02-06T19:20:52.784Z,25.20
2019-02-06T19:23:22.320Z,25.17
2019-02-06T19:25:51.826Z,27.93
2019-02-06T19:28:21.366Z,24.27
2019-02-06T19:30:50.865Z,27.30
2019-02-06T19:33:20.447Z,25.33
2019-02-06T19:35:50.059Z,25.77
2019-02-06T19:38:19.539Z,24.53
2019-02-06T19:40:49.237Z,31.43
2019-02-06T19:43:20.436Z,52.70
2019-02-06T19:45:50.011Z,41.10
2019-02-06T19:48:22.291Z,30.33
2019-02-06T19:50:51.303Z,30.87
2019-02-06T19:53:20.986Z,41.90
2019-02-06T19:55:50.489Z,35.53
2019-02-06T19:58:20.057Z,25.53
2019-02-06T20:00:49.922Z,30.23
2019-02-06T20:03:19.399Z,25.90
2019-02-06T20:05:48.900Z,23.73
2019-02-06T20:08:18.490Z,24.60
2019-02-06T20:10:51.555Z,24.87
2019-02-06T20:13:21.103Z,27.70
2019-02-06T20:15:51.013Z,34.10
2019-02-06T20:18:20.570Z,35.03
2019-02-06T20:20:50.065Z,24.43
2019-02-06T20:23:19.632Z,40.60
2019-02-06T20:25:49.194Z,29.97
2019-02-06T20:28:18.751Z,31.10
2019-02-06T20:30:48.254Z,25.13
2019-02-06T20:33:18.227Z,21.20
2019-02-06T20:35:47.754Z,23.83
2019-02-06T20:38:17.369Z,29.70
2019-02-06T20:40:46.938Z,29.40
2019-02-06T20:43:22.159Z,30.10
2019-02-06T20:45:47.641Z,30.00
2019-02-06T20:48:17.208Z,25.73
2019-02-06T20:50:46.689Z,27.17
2019-02-06T20:53:16.381Z,50.40
2019-02-06T20:55:45.957Z,31.80
2019-02-06T20:58:15.421Z,40.87
2019-02-06T21:00:44.934Z,29.50
2019-02-06T21:03:14.439Z,21.70
2019-02-06T21:05:44.303Z,23.50
2019-02-06T21:08:13.888Z,21.47
2019-02-06T21:10:43.379Z,28.80
2019-02-06T21:13:12.879Z,34.90
2019-02-06T21:15:42.441Z,30.17
2019-02-06T21:18:11.954Z,26.20
2019-02-06T21:20:41.904Z,22.30
2019-02-06T21:23:11.462Z,33.03
2019-02-06T21:25:41.040Z,49.40
2019-02-06T21:28:10.588Z,40.47
2019-02-06T21:30:43.089Z,40.50
2019-02-06T21:33:12.602Z,28.03
2019-02-06T21:35:42.459Z,24.90
2019-02-06T21:38:12.042Z,24.03
2019-02-06T21:40:41.503Z,22.43
2019-02-06T21:43:10.984Z,24.13
2019-02-06T21:45:40.497Z,26.97
2019-02-06T21:48:09.963Z,28.80
2019-02-06T21:50:39.733Z,26.37
2019-02-06T21:53:09.229Z,26.07
2019-02-06T21:55:38.704Z,31.80
2019-02-06T21:58:08.170Z,29.70
2019-02-06T22:00:42.986Z,37.00
2019-02-06T22:03:12.460Z,38.10
2019-02-06T22:05:41.969Z,37.60
2019-02-06T22:08:11.437Z,26.10
2019-02-06T22:10:40.914Z,29.27
2019-02-06T22:13:10.485Z,29.83
2019-02-06T22:15:39.984Z,25.17
2019-02-06T22:18:09.943Z,25.13
2019-02-06T22:20:39.496Z,33.80
2019-02-06T22:23:08.970Z,25.00
2019-02-06T22:25:38.459Z,26.03
2019-02-06T22:28:07.920Z,24.70
2019-02-06T22:30:37.426Z,29.77
2019-02-06T22:33:07.280Z,28.60
2019-02-06T22:35:36.815Z,26.97
2019-02-06T22:38:06.280Z,34.80
2019-02-06T22:40:35.766Z,38.73
2019-02-06T22:43:05.271Z,27.80
2019-02-06T22:45:34.749Z,31.33
2019-02-06T22:48:04.808Z,31.50
2019-02-06T22:50:34.304Z,32.17
2019-02-06T22:53:03.792Z,29.03
2019-02-06T22:55:33.343Z,23.67
2019-02-06T22:58:02.856Z,30.80
2019-02-06T23:01:06.995Z,29.87
2019-02-06T23:03:38.507Z,28.30
2019-02-06T23:06:08.191Z,27.90
2019-02-06T23:08:37.682Z,30.43
2019-02-06T23:11:07.294Z,26.03
2019-02-06T23:13:36.854Z,25.33
2019-02-06T23:16:06.600Z,27.00
2019-02-06T23:18:36.099Z,30.13
2019-02-06T23:21:05.577Z,25.80
2019-02-06T23:23:35.456Z,31.47
2019-02-06T23:26:04.973Z,33.67
2019-02-06T23:28:34.486Z,31.70
2019-02-06T23:31:03.967Z,25.50
2019-02-06T23:33:33.571Z,25.87
2019-02-06T23:36:03.158Z,29.50
2019-02-06T23:38:33.019Z,30.47
2019-02-06T23:41:02.524Z,24.97
2019-02-06T23:43:32.007Z,33.07
2019-02-06T23:46:01.659Z,24.70
2019-02-06T23:48:31.162Z,28.73
2019-02-06T23:51:00.639Z,28.10
2019-02-06T23:53:30.320Z,29.97
2019-02-06T23:55:59.860Z,30.00
2019-02-06T23:58:29.382Z,30.33
